KMNV

Monroe County Airport

Madisonville, Tennessee, USA
METAR KMNV 231355Z AUTO 20005G11KT 10SM CLR 21/15 A3036 RMK A01
Observed Flight Rules
Feb-23 @ 13:55 UTC (31 minutes ago) Visual Flight Rules
Wind Visibility Clouds
200° at 5 knots
 Gusting to 11 knots
10 miles
  • Clear skies
Temperatures Readings
Current 21°C / 70°F
Dewpoint 15°C / 59°F
Humidity 69%
Altimeter 30.36" Hg
Pressure 1028 hPa
Elevation 314
METAR KMNV 231355Z AUTO 20005G11KT 10SM CLR 21/15 A3036 RMK A01
Observed Flight Rules
Feb-23 @ 13:55 UTC
(31 minutes ago)
VFR
Wind Visibility
200° at 5 knots
 Gusting to 11 knots
10 miles
Clouds
  • Clear skies
Temperature Dewpoint
21°C / 70°F 15°C / 59°F
Humidity Altimeter Pressure
69% 30.36" Hg 1028 hPa